Time;durP1;ratioP1;P1;durP2;ratioP2;P2;SDS_P1;SDS_P2;PMS_P1;PMS_P2;Temp;Humidity;BMP_temperature;BMP_pressure;BME280_temperature;BME280_humidity;BME280_pressure;Samples;Min_cycle;Max_cycle;Signal;HPM_P1;HPM_P2
2021/08/26 11:58:52;;;;;;;2.20;1.00;;;19.70;95.70;;;;;;5897821;22;20459;-50
2021/08/26 12:01:23;;;;;;;1.40;0.50;;;19.60;96.00;;;;;;5053293;28;20450;-50
2021/08/26 12:03:55;;;;;;;1.93;1.63;;;19.60;96.10;;;;;;5052541;28;20839;-50
2021/08/26 12:09:03;;;;;;;3.07;0.87;;;19.50;96.10;;;;;;5705872;23;20581;-53
2021/08/26 12:11:30;;;;;;;1.90;0.97;;;19.20;96.00;;;;;;5033689;28;20472;-51
2021/08/26 12:14:08;;;;;;;1.13;0.70;;;19.00;95.80;;;;;;5010914;28;20474;-52
2021/08/26 12:16:35;;;;;;;1.30;0.80;;;19.10;96.10;;;;;;5012153;28;20997;-52
2021/08/26 12:19:04;;;;;;;2.63;0.77;;;19.00;96.80;;;;;;5019127;28;20494;-52
2021/08/26 12:21:30;;;;;;;1.13;0.70;;;19.00;96.30;;;;;;5031834;28;20526;-53
2021/08/26 12:23:57;;;;;;;2.03;0.70;;;19.00;96.40;;;;;;5054616;23;20903;-51
2021/08/26 12:26:24;;;;;;;1.30;0.67;;;19.00;96.10;;;;;;5032862;28;20441;-51
2021/08/26 12:28:56;;;;;;;1.47;0.80;;;19.00;95.80;;;;;;5032409;28;20755;-52
2021/08/26 12:31:25;;;;;;;1.30;0.70;;;19.00;95.50;;;;;;5033738;28;20442;-52
2021/08/26 12:34:00;;;;;;;2.83;0.80;;;19.10;95.60;;;;;;5033147;28;20644;-51
2021/08/26 12:36:27;;;;;;;1.70;0.70;;;19.10;95.30;;;;;;5033035;28;20525;-51
2021/08/26 12:38:53;;;;;;;1.10;0.60;;;19.10;95.20;;;;;;5033151;28;20482;-51
2021/08/26 12:41:22;;;;;;;1.67;0.80;;;19.10;95.30;;;;;;5032631;28;20435;-52
2021/08/26 12:43:52;;;;;;;1.53;0.80;;;19.20;95.50;;;;;;5032970;28;20463;-51
2021/08/26 12:46:21;;;;;;;2.43;0.77;;;19.20;95.10;;;;;;5033196;28;20814;-51
2021/08/26 12:48:51;;;;;;;1.70;0.80;;;19.20;94.90;;;;;;5032249;28;20431;-51
2021/08/26 12:51:24;;;;;;;1.20;0.70;;;19.10;94.10;;;;;;5032404;28;20801;-51
2021/08/26 12:54:13;;;;;;;1.67;0.93;;;19.10;94.20;;;;;;5031984;28;20474;-52
2021/08/26 12:56:43;;;;;;;2.10;0.70;;;19.00;94.40;;;;;;5032333;28;20431;-52
2021/08/26 12:59:12;;;;;;;2.23;0.70;;;18.90;94.40;;;;;;5032146;28;20484;-52
2021/08/26 13:01:40;;;;;;;2.90;0.80;;;18.80;94.40;;;;;;5032583;28;20430;-52
2021/08/26 13:04:18;;;;;;;1.73;0.70;;;18.90;94.50;;;;;;5032314;28;20904;-51
2021/08/26 13:06:47;;;;;;;1.40;0.73;;;18.90;94.50;;;;;;5031276;28;20484;-52
2021/08/26 13:09:26;;;;;;;2.57;0.70;;;19.00;94.80;;;;;;5032231;28;20763;-52
2021/08/26 13:11:59;;;;;;;2.90;0.80;;;19.00;94.90;;;;;;5032647;28;20498;-52
2021/08/26 13:14:30;;;;;;;2.00;0.70;;;19.20;95.10;;;;;;5032781;28;20485;-52
2021/08/26 13:16:56;;;;;;;1.27;0.70;;;19.10;95.10;;;;;;5032464;28;20450;-52
2021/08/26 13:19:24;;;;;;;3.80;0.60;;;19.30;94.90;;;;;;5032087;28;20501;-52
2021/08/26 13:21:51;;;;;;;3.23;0.80;;;19.40;95.00;;;;;;5031591;28;20423;-52
2021/08/26 13:24:19;;;;;;;1.70;0.90;;;19.40;94.90;;;;;;5031784;28;20439;-52
2021/08/26 13:26:46;;;;;;;1.37;0.80;;;19.50;94.90;;;;;;5031542;28;20848;-52
2021/08/26 13:29:12;;;;;;;1.30;0.70;;;19.40;94.80;;;;;;5031614;28;20435;-52
2021/08/26 13:31:39;;;;;;;5.53;1.60;;;19.50;95.10;;;;;;5031390;28;20442;-52
2021/08/26 13:34:06;;;;;;;1.77;0.90;;;19.60;95.20;;;;;;5031830;28;20458;-52
2021/08/26 13:36:35;;;;;;;4.20;0.83;;;19.60;95.30;;;;;;5031943;28;20450;-52
2021/08/26 13:39:03;;;;;;;1.90;1.33;;;19.70;95.40;;;;;;5031346;28;20465;-52
2021/08/26 13:41:29;;;;;;;2.63;0.90;;;19.70;95.60;;;;;;5031278;28;20482;-52
2021/08/26 13:43:56;;;;;;;1.53;0.60;;;19.50;95.90;;;;;;5031561;28;20451;-52
2021/08/26 13:46:22;;;;;;;2.47;1.00;;;19.40;96.10;;;;;;5031594;28;20446;-52
2021/08/26 13:48:49;;;;;;;1.77;0.87;;;19.30;96.30;;;;;;5031231;28;20445;-52
2021/08/26 13:51:16;;;;;;;2.20;0.90;;;19.20;96.50;;;;;;5031716;28;20941;-52
2021/08/26 13:53:47;;;;;;;1.40;0.90;;;19.20;96.70;;;;;;5029700;28;20474;-51
2021/08/26 13:56:14;;;;;;;2.13;0.73;;;19.30;96.90;;;;;;5031670;28;20791;-53
2021/08/26 13:58:42;;;;;;;3.90;0.73;;;19.20;96.90;;;;;;5031224;28;20442;-53
2021/08/26 14:01:10;;;;;;;6.30;1.20;;;19.20;97.10;;;;;;5031330;28;20541;-52
2021/08/26 14:03:37;;;;;;;2.90;0.70;;;19.20;97.20;;;;;;5031820;28;20554;-52
2021/08/26 14:06:04;;;;;;;1.10;0.70;;;19.10;97.30;;;;;;5030151;28;20969;-52
2021/08/26 14:08:31;;;;;;;2.47;0.90;;;19.10;97.20;;;;;;5030838;28;20823;-51
2021/08/26 14:10:59;;;;;;;1.70;0.67;;;19.20;97.10;;;;;;5030992;28;20430;-51
2021/08/26 14:13:26;;;;;;;1.37;0.80;;;19.20;97.20;;;;;;5030999;28;20934;-53
2021/08/26 14:15:52;;;;;;;2.17;0.70;;;18.90;97.10;;;;;;5030658;28;20435;-52
2021/08/26 14:18:19;;;;;;;3.70;0.60;;;19.20;97.40;;;;;;5030856;28;20441;-51
2021/08/26 14:20:45;;;;;;;1.70;1.00;;;19.10;97.40;;;;;;5029349;28;20441;-52
2021/08/26 14:23:12;;;;;;;4.27;2.87;;;19.10;97.60;;;;;;5030829;28;20478;-53
2021/08/26 14:25:39;;;;;;;2.93;2.17;;;19.10;97.70;;;;;;5031187;28;20461;-51
2021/08/26 14:28:07;;;;;;;1.20;0.80;;;19.00;97.60;;;;;;5030432;28;20961;-52
2021/08/26 14:30:34;;;;;;;2.07;0.60;;;18.90;97.50;;;;;;5031189;28;21045;-52
2021/08/26 14:33:00;;;;;;;2.63;0.90;;;18.80;97.60;;;;;;5030671;28;20470;-52
2021/08/26 14:35:27;;;;;;;6.90;1.97;;;18.80;97.60;;;;;;5030777;28;20435;-52
2021/08/26 14:37:54;;;;;;;2.03;0.70;;;19.00;97.80;;;;;;5029725;28;20977;-52
2021/08/26 14:40:22;;;;;;;3.50;1.60;;;18.70;97.50;;;;;;5030902;28;20482;-51
2021/08/26 14:42:48;;;;;;;1.57;0.70;;;18.60;98.10;;;;;;5031114;28;20541;-51
2021/08/26 14:45:16;;;;;;;2.27;0.80;;;18.50;98.70;;;;;;5031049;28;20442;-51
2021/08/26 14:47:43;;;;;;;1.63;0.70;;;18.30;99.20;;;;;;5030610;28;20435;-51
2021/08/26 14:50:11;;;;;;;2.33;0.90;;;18.20;99.90;;;;;;5030549;28;20447;-51
2021/08/26 14:52:37;;;;;;;2.33;0.97;;;18.10;99.90;;;;;;5030855;28;20458;-51
2021/08/26 14:55:05;;;;;;;1.57;0.80;;;18.10;99.90;;;;;;5030553;28;20499;-51
2021/08/26 14:57:32;;;;;;;4.73;1.17;;;18.10;99.90;;;;;;5030778;28;20436;-52
2021/08/26 14:59:58;;;;;;;2.23;1.00;;;18.20;99.90;;;;;;5030890;28;20534;-52
2021/08/26 15:02:26;;;;;;;2.43;1.30;;;18.20;99.90;;;;;;5030208;28;21068;-52
2021/08/26 15:04:53;;;;;;;1.93;1.13;;;18.20;99.90;;;;;;5030575;28;20449;-52
2021/08/26 15:07:20;;;;;;;4.20;0.90;;;18.20;99.90;;;;;;5030165;28;20485;-52
2021/08/26 15:09:46;;;;;;;1.83;0.70;;;18.30;99.90;;;;;;5030211;28;20405;-52
2021/08/26 15:12:13;;;;;;;3.03;0.93;;;18.10;99.90;;;;;;5030509;28;20461;-52
2021/08/26 15:14:40;;;;;;;2.53;0.70;;;18.10;99.90;;;;;;5030522;28;20442;-52
2021/08/26 15:17:06;;;;;;;0.93;0.60;;;18.00;99.90;;;;;;5031338;28;20442;-52
2021/08/26 15:19:34;;;;;;;2.10;1.00;;;18.00;99.90;;;;;;5030803;28;20749;-51
2021/08/26 15:22:03;;;;;;;1.97;0.77;;;17.90;99.90;;;;;;5032713;28;20969;-50
2021/08/26 15:24:30;;;;;;;2.80;0.60;;;18.00;99.90;;;;;;5034014;28;20446;-52
2021/08/26 15:26:57;;;;;;;2.40;0.77;;;18.10;99.90;;;;;;5030354;28;20469;-52
2021/08/26 15:29:24;;;;;;;1.57;0.70;;;18.10;99.90;;;;;;5030423;28;20432;-53
2021/08/26 15:31:50;;;;;;;2.97;1.47;;;17.90;99.90;;;;;;5030246;28;20433;-52
2021/08/26 15:34:17;;;;;;;3.43;0.87;;;18.20;99.90;;;;;;5030528;28;20903;-52
2021/08/26 15:36:45;;;;;;;1.20;0.60;;;18.30;99.90;;;;;;5030331;28;20472;-51
2021/08/26 15:39:11;;;;;;;1.80;1.00;;;18.30;99.90;;;;;;5030890;28;20438;-51
2021/08/26 15:41:38;;;;;;;3.47;1.60;;;18.40;99.90;;;;;;5031064;28;20499;-51
2021/08/26 15:44:07;;;;;;;2.23;1.00;;;18.50;99.90;;;;;;5030621;28;20451;-51
2021/08/26 15:46:35;;;;;;;1.40;1.20;;;18.60;99.90;;;;;;5030480;28;20936;-51
2021/08/26 15:49:01;;;;;;;1.73;1.20;;;18.70;99.90;;;;;;5031224;28;20769;-51
2021/08/26 15:51:30;;;;;;;2.53;1.17;;;18.50;99.90;;;;;;5034657;28;20454;-51
2021/08/26 15:54:01;;;;;;;7.60;1.23;;;18.50;99.90;;;;;;5034692;28;20809;-51
2021/08/26 15:56:32;;;;;;;2.10;1.33;;;18.50;99.90;;;;;;5034364;28;20876;-51
2021/08/26 15:59:01;;;;;;;2.00;1.40;;;18.40;99.90;;;;;;5033570;28;20438;-51
2021/08/26 16:01:31;;;;;;;3.20;1.20;;;18.30;99.90;;;;;;5034088;28;20915;-51
2021/08/26 16:03:57;;;;;;;4.43;1.83;;;18.30;99.90;;;;;;5034283;28;20546;-51
2021/08/26 16:06:25;;;;;;;2.17;1.30;;;18.20;99.90;;;;;;5034408;28;20560;-51
2021/08/26 16:08:52;;;;;;;2.40;1.50;;;18.00;99.90;;;;;;5034072;28;20433;-51
2021/08/26 16:11:21;;;;;;;3.43;1.30;;;18.10;99.90;;;;;;5033681;28;20919;-51
2021/08/26 16:13:48;;;;;;;3.30;2.47;;;18.00;99.90;;;;;;5033684;28;20449;-52
2021/08/26 16:16:15;;;;;;;4.47;1.83;;;18.40;99.90;;;;;;5031650;28;20709;-52
2021/08/26 16:18:43;;;;;;;1.40;1.03;;;18.00;99.90;;;;;;5031405;28;20449;-51
2021/08/26 16:21:10;;;;;;;2.27;1.43;;;18.00;99.90;;;;;;5032943;28;20474;-52
2021/08/26 16:23:37;;;;;;;4.70;1.60;;;17.90;99.90;;;;;;5032913;28;20999;-51
2021/08/26 16:26:03;;;;;;;4.50;2.07;;;18.00;99.90;;;;;;5032863;28;20437;-51
2021/08/26 16:28:31;;;;;;;3.50;1.97;;;18.10;99.90;;;;;;5033058;28;20440;-52
2021/08/26 16:30:59;;;;;;;3.50;1.80;;;18.10;99.90;;;;;;5033561;28;20430;-52
2021/08/26 16:33:26;;;;;;;2.87;2.00;;;18.10;99.90;;;;;;5033399;28;20453;-52
2021/08/26 16:35:53;;;;;;;3.70;2.43;;;18.10;99.90;;;;;;5033019;28;20773;-52
2021/08/26 16:38:19;;;;;;;3.00;2.20;;;18.00;99.90;;;;;;5032662;28;20559;-52
2021/08/26 16:40:46;;;;;;;2.67;1.80;;;18.00;99.90;;;;;;5033124;28;20481;-51
2021/08/26 16:43:14;;;;;;;3.83;1.70;;;17.90;99.90;;;;;;5033034;28;20540;-52
2021/08/26 16:45:42;;;;;;;6.33;1.93;;;17.80;99.90;;;;;;5033353;28;20936;-52
2021/08/26 16:48:09;;;;;;;7.17;2.77;;;17.90;99.90;;;;;;5032647;28;20446;-52
2021/08/26 16:50:35;;;;;;;2.40;1.80;;;17.80;99.90;;;;;;5032969;28;20440;-52
2021/08/26 16:53:02;;;;;;;2.27;1.00;;;17.70;99.90;;;;;;5032506;28;20542;-52
2021/08/26 16:55:29;;;;;;;2.70;1.73;;;17.60;99.90;;;;;;5031914;28;20463;-52
2021/08/26 16:57:55;;;;;;;3.67;1.63;;;17.50;99.90;;;;;;5032493;28;20525;-51
2021/08/26 17:00:22;;;;;;;1.90;1.20;;;17.60;99.90;;;;;;5032642;28;20477;-52
2021/08/26 17:02:50;;;;;;;1.70;1.13;;;17.40;99.90;;;;;;5032793;28;20452;-52
2021/08/26 17:05:17;;;;;;;3.87;1.40;;;17.20;99.90;;;;;;5033369;28;20491;-52
2021/08/26 17:07:44;;;;;;;2.43;1.00;;;17.10;99.90;;;;;;5032877;28;20533;-52
2021/08/26 17:10:11;;;;;;;1.33;0.93;;;17.10;99.90;;;;;;5031230;28;20460;-53
2021/08/26 17:12:38;;;;;;;2.73;1.10;;;17.40;99.90;;;;;;5032463;28;20465;-52
2021/08/26 17:15:08;;;;;;;2.57;1.37;;;16.90;99.90;;;;;;5032707;28;20432;-52
2021/08/26 17:17:34;;;;;;;1.63;1.23;;;16.90;99.90;;;;;;5031965;28;20489;-52
2021/08/26 17:20:04;;;;;;;3.53;1.50;;;16.90;99.90;;;;;;5032086;28;20436;-53
2021/08/26 17:22:31;;;;;;;3.00;1.70;;;16.90;99.90;;;;;;5032190;28;20523;-52
2021/08/26 17:24:57;;;;;;;4.57;2.93;;;16.90;99.90;;;;;;5032086;28;20435;-51
2021/08/26 17:27:25;;;;;;;4.90;2.53;;;16.90;99.90;;;;;;5031694;28;20432;-51
2021/08/26 17:29:51;;;;;;;2.90;2.27;;;16.90;99.90;;;;;;5031774;28;20832;-51
2021/08/26 17:32:18;;;;;;;3.53;1.87;;;16.70;99.90;;;;;;5032677;28;20808;-52
2021/08/26 17:34:45;;;;;;;4.53;2.40;;;16.90;99.90;;;;;;5032718;28;20443;-51
2021/08/26 17:37:14;;;;;;;4.53;1.67;;;17.00;99.90;;;;;;5032723;28;20444;-52
2021/08/26 17:39:40;;;;;;;4.53;2.10;;;17.10;99.90;;;;;;5032071;28;20453;-51
2021/08/26 17:42:08;;;;;;;3.33;1.80;;;16.90;99.90;;;;;;5031599;28;20491;-52
2021/08/26 17:44:35;;;;;;;4.40;2.10;;;16.90;99.90;;;;;;5031562;28;20801;-52
2021/08/26 17:47:01;;;;;;;5.87;2.90;;;16.90;99.90;;;;;;5031887;28;20432;-51
2021/08/26 17:49:28;;;;;;;5.77;2.40;;;16.90;99.90;;;;;;5030183;28;20443;-51
2021/08/26 17:51:55;;;;;;;9.97;3.30;;;16.90;99.90;;;;;;5031840;28;20434;-52
2021/08/26 17:54:23;;;;;;;4.67;3.23;;;16.80;99.90;;;;;;5031932;28;20451;-52
2021/08/26 17:56:50;;;;;;;5.13;2.60;;;16.90;99.90;;;;;;5031766;28;20536;-51
2021/08/26 17:59:16;;;;;;;6.10;3.70;;;17.00;99.90;;;;;;5031684;28;20623;-52
2021/08/26 18:01:43;;;;;;;8.13;2.90;;;16.80;99.90;;;;;;5031504;28;20480;-51
2021/08/26 18:04:09;;;;;;;5.00;2.20;;;16.80;99.90;;;;;;5031445;28;20542;-52
2021/08/26 18:06:36;;;;;;;4.97;2.60;;;16.80;99.90;;;;;;5031427;28;20425;-51
2021/08/26 18:09:03;;;;;;;4.83;2.33;;;16.70;99.90;;;;;;5030924;28;20432;-51
2021/08/26 18:11:31;;;;;;;4.47;2.20;;;16.60;99.90;;;;;;5031386;28;20443;-51
2021/08/26 18:13:57;;;;;;;4.53;2.53;;;16.60;99.90;;;;;;5031318;28;20534;-51
2021/08/26 18:16:24;;;;;;;4.90;2.30;;;16.50;99.90;;;;;;5031416;28;20448;-51
2021/08/26 18:18:51;;;;;;;4.50;2.23;;;16.60;99.90;;;;;;5030954;28;20434;-51
2021/08/26 18:21:17;;;;;;;3.70;2.17;;;16.60;99.90;;;;;;5031290;28;20482;-51
2021/08/26 18:23:44;;;;;;;5.90;3.10;;;16.60;99.90;;;;;;5031822;28;20597;-51
2021/08/26 18:26:10;;;;;;;5.60;3.53;;;16.60;99.90;;;;;;5031522;28;20435;-51
2021/08/26 18:28:38;;;;;;;5.10;2.63;;;16.50;99.90;;;;;;5030871;28;20442;-51
2021/08/26 18:31:05;;;;;;;6.27;3.63;;;16.50;99.90;;;;;;5031535;28;20876;-54
2021/08/26 18:33:32;;;;;;;6.93;3.27;;;16.60;99.90;;;;;;5030975;28;20451;-51
2021/08/26 18:35:59;;;;;;;5.63;2.83;;;16.50;99.90;;;;;;5031450;28;20925;-51
2021/08/26 18:38:26;;;;;;;4.83;2.73;;;16.50;99.90;;;;;;5031103;28;20443;-52
2021/08/26 18:40:52;;;;;;;5.10;3.30;;;16.50;99.90;;;;;;5031418;28;20475;-52
2021/08/26 18:43:19;;;;;;;4.80;2.83;;;16.50;99.90;;;;;;5031209;28;20450;-52
2021/08/26 18:45:48;;;;;;;3.57;2.07;;;16.40;99.90;;;;;;5031097;28;20437;-52
2021/08/26 18:48:14;;;;;;;4.90;2.10;;;16.50;99.90;;;;;;5030785;28;20542;-52
2021/08/26 18:50:41;;;;;;;4.70;1.90;;;16.50;99.90;;;;;;5031388;28;20432;-52
2021/08/26 18:53:08;;;;;;;5.27;1.83;;;16.50;99.90;;;;;;5030965;28;20445;-52
2021/08/26 18:55:37;;;;;;;3.30;1.97;;;16.50;99.90;;;;;;5030566;28;20437;-52
2021/08/26 18:58:04;;;;;;;3.10;2.07;;;16.50;99.90;;;;;;5030528;28;20455;-52
2021/08/26 19:00:31;;;;;;;4.57;2.23;;;16.50;99.90;;;;;;5031339;28;20447;-52
2021/08/26 19:02:59;;;;;;;2.87;1.83;;;16.40;99.90;;;;;;5031163;28;20454;-52
2021/08/26 19:05:25;;;;;;;3.23;2.27;;;16.40;99.90;;;;;;5031172;28;20436;-51
2021/08/26 19:07:52;;;;;;;14.77;3.13;;;16.40;99.90;;;;;;5030765;28;20431;-52
2021/08/26 19:10:18;;;;;;;3.93;2.10;;;16.40;99.90;;;;;;5031252;28;20438;-52
2021/08/26 19:12:45;;;;;;;5.20;2.47;;;16.70;99.90;;;;;;5031098;28;20518;-52
2021/08/26 19:15:12;;;;;;;5.10;2.57;;;16.40;99.90;;;;;;5031106;28;20452;-52
2021/08/26 19:17:39;;;;;;;3.33;2.13;;;16.40;99.90;;;;;;5030708;28;20800;-52
2021/08/26 19:20:09;;;;;;;4.07;2.90;;;16.40;99.90;;;;;;5031060;28;20497;-52
2021/08/26 19:22:35;;;;;;;4.37;2.83;;;16.30;99.90;;;;;;5030661;28;20551;-52
2021/08/26 19:25:02;;;;;;;6.63;2.97;;;16.30;99.90;;;;;;5034101;28;20886;-52
2021/08/26 19:27:29;;;;;;;5.03;2.77;;;16.30;99.90;;;;;;5034937;28;20761;-52
2021/08/26 19:29:55;;;;;;;2.87;2.17;;;16.30;99.90;;;;;;5034184;28;20435;-52
2021/08/26 19:32:22;;;;;;;7.90;4.80;;;16.20;99.90;;;;;;5034457;28;20538;-51
2021/08/26 19:34:48;;;;;;;5.43;3.23;;;16.20;99.90;;;;;;5034531;28;20435;-52
2021/08/26 19:37:16;;;;;;;3.53;2.20;;;16.20;99.90;;;;;;5034684;28;20449;-52
2021/08/26 19:39:43;;;;;;;3.83;2.03;;;16.20;99.90;;;;;;5034147;28;20431;-52
2021/08/26 19:42:10;;;;;;;3.13;2.00;;;16.10;99.90;;;;;;5034363;28;20484;-52
2021/08/26 19:44:36;;;;;;;5.50;2.57;;;16.10;99.90;;;;;;5034817;28;20904;-52
2021/08/26 19:47:03;;;;;;;5.00;2.47;;;16.10;99.90;;;;;;5034383;28;20442;-52
2021/08/26 19:49:30;;;;;;;3.93;1.73;;;16.00;99.90;;;;;;5034274;28;20434;-51
2021/08/26 19:51:57;;;;;;;3.37;1.93;;;15.70;99.90;;;;;;5034619;28;20435;-52
2021/08/26 19:54:25;;;;;;;4.90;2.57;;;15.90;99.90;;;;;;5034317;28;20883;-52
2021/08/26 19:56:52;;;;;;;4.97;2.70;;;15.90;99.90;;;;;;5034477;28;20938;-52
2021/08/26 19:59:18;;;;;;;9.23;3.43;;;15.90;99.90;;;;;;5034198;28;20438;-52
2021/08/26 20:01:45;;;;;;;11.70;3.40;;;15.80;99.90;;;;;;5034172;28;20482;-52
2021/08/26 20:04:12;;;;;;;4.60;2.63;;;15.90;99.90;;;;;;5034046;28;20451;-52
2021/08/26 20:06:39;;;;;;;4.07;2.60;;;16.10;99.90;;;;;;5034265;28;20556;-52
2021/08/26 20:09:05;;;;;;;2.93;1.87;;;15.80;99.90;;;;;;5033657;28;20439;-52
2021/08/26 20:11:33;;;;;;;3.07;1.73;;;15.90;99.90;;;;;;5034132;28;20444;-52
2021/08/26 20:14:00;;;;;;;5.80;2.17;;;15.90;99.90;;;;;;5033962;28;20987;-52
2021/08/26 20:16:26;;;;;;;4.33;2.50;;;15.80;99.90;;;;;;5033826;28;20821;-52
2021/08/26 20:18:53;;;;;;;4.23;2.90;;;15.90;99.90;;;;;;5033235;28;20435;-52
2021/08/26 20:21:20;;;;;;;4.80;3.10;;;15.80;99.90;;;;;;5033739;28;20831;-51
2021/08/26 20:23:46;;;;;;;3.33;2.40;;;15.80;99.90;;;;;;5033452;28;20861;-52
2021/08/26 20:26:13;;;;;;;3.00;2.00;;;15.80;99.90;;;;;;5033782;28;20943;-52
2021/08/26 20:28:41;;;;;;;4.00;2.60;;;15.80;99.90;;;;;;5033581;28;20488;-52
2021/08/26 20:31:07;;;;;;;3.83;2.10;;;15.80;99.90;;;;;;5033985;28;20446;-52
2021/08/26 20:33:34;;;;;;;2.83;2.07;;;15.80;99.90;;;;;;5033715;28;20517;-52
2021/08/26 20:36:00;;;;;;;2.27;1.50;;;15.70;99.90;;;;;;5032443;28;20452;-52
2021/08/26 20:38:27;;;;;;;5.30;2.00;;;15.70;99.90;;;;;;5033287;28;20534;-52
2021/08/26 20:40:53;;;;;;;4.43;2.23;;;15.70;99.90;;;;;;5033651;28;20435;-51
2021/08/26 20:43:20;;;;;;;4.50;1.77;;;15.70;99.90;;;;;;5033462;28;20588;-51
2021/08/26 20:45:48;;;;;;;2.47;1.70;;;15.60;99.90;;;;;;5033780;28;20439;-51
2021/08/26 20:48:14;;;;;;;2.10;1.50;;;15.60;99.90;;;;;;5032796;28;20929;-52
2021/08/26 20:50:41;;;;;;;2.57;1.60;;;15.50;99.90;;;;;;5033648;28;20427;-52
2021/08/26 20:53:08;;;;;;;4.53;1.93;;;15.50;99.90;;;;;;5033460;28;20435;-51
2021/08/26 20:55:34;;;;;;;2.83;1.90;;;15.50;99.90;;;;;;5033341;28;20441;-52
2021/08/26 20:58:01;;;;;;;2.43;1.73;;;15.40;99.90;;;;;;5032974;28;20431;-51
2021/08/26 21:00:27;;;;;;;2.33;1.60;;;15.30;99.90;;;;;;5033321;28;20484;-51
2021/08/26 21:02:55;;;;;;;3.30;1.93;;;15.30;99.90;;;;;;5033512;28;20487;-52
2021/08/26 21:05:22;;;;;;;4.07;2.23;;;15.10;99.90;;;;;;5033839;28;20446;-52
2021/08/26 21:07:49;;;;;;;4.20;2.73;;;15.20;99.90;;;;;;5033830;28;20920;-51
2021/08/26 21:10:16;;;;;;;6.10;2.73;;;15.20;99.90;;;;;;5033481;28;20967;-52
2021/08/26 21:12:42;;;;;;;4.77;2.60;;;15.20;99.90;;;;;;5033243;28;20451;-52
2021/08/26 21:15:11;;;;;;;11.50;2.63;;;15.20;99.90;;;;;;5032915;28;20481;-51
2021/08/26 21:17:37;;;;;;;3.40;2.00;;;15.20;99.90;;;;;;5032833;28;20453;-52
2021/08/26 21:20:07;;;;;;;3.30;2.20;;;15.20;99.90;;;;;;5032959;28;20434;-51
2021/08/26 21:22:36;;;;;;;4.40;2.50;;;15.20;99.90;;;;;;5032667;28;20868;-51
2021/08/26 21:25:02;;;;;;;4.80;2.17;;;15.20;99.90;;;;;;5032658;28;20864;-51
2021/08/26 21:27:29;;;;;;;4.07;1.90;;;15.20;99.90;;;;;;5032906;28;20446;-51
2021/08/26 21:29:55;;;;;;;3.50;2.47;;;15.20;99.90;;;;;;5032357;28;20444;-51
2021/08/26 21:32:22;;;;;;;5.67;2.30;;;15.40;99.90;;;;;;5032413;28;20463;-51
2021/08/26 21:34:49;;;;;;;2.27;2.07;;;15.70;99.90;;;;;;5032276;28;20488;-52
2021/08/26 21:37:16;;;;;;;4.40;1.70;;;15.30;99.90;;;;;;5032430;28;20428;-52
2021/08/26 21:39:43;;;;;;;3.67;2.10;;;15.30;99.90;;;;;;5032817;28;20430;-52
2021/08/26 21:42:10;;;;;;;3.17;1.97;;;15.30;99.90;;;;;;5032513;28;20869;-52
2021/08/26 21:44:37;;;;;;;4.03;2.20;;;15.30;99.90;;;;;;5032107;28;20467;-52
2021/08/26 21:47:04;;;;;;;2.10;1.70;;;15.30;99.90;;;;;;5032278;28;20498;-51
2021/08/26 21:49:30;;;;;;;3.57;2.47;;;15.10;99.90;;;;;;5032002;28;20436;-51
2021/08/26 21:51:57;;;;;;;2.50;1.63;;;15.30;99.90;;;;;;5032217;28;20434;-51
2021/08/26 21:54:25;;;;;;;3.00;1.87;;;15.30;99.90;;;;;;5032473;28;20546;-52
2021/08/26 21:56:51;;;;;;;3.07;1.80;;;15.50;99.90;;;;;;5032934;28;20915;-52
2021/08/26 21:59:18;;;;;;;4.07;2.60;;;15.20;99.90;;;;;;5032158;28;20427;-52
2021/08/26 22:01:45;;;;;;;3.50;2.30;;;15.20;99.90;;;;;;5032183;28;20775;-52
2021/08/26 22:04:11;;;;;;;3.20;1.70;;;15.20;99.90;;;;;;5031837;28;20456;-52
2021/08/26 22:06:38;;;;;;;3.17;1.83;;;15.20;99.90;;;;;;5032063;28;20442;-52
2021/08/26 22:09:06;;;;;;;2.20;1.53;;;15.20;99.90;;;;;;5032131;28;20443;-52
2021/08/26 22:11:34;;;;;;;2.87;1.50;;;15.20;99.90;;;;;;5032197;28;20442;-51
2021/08/26 22:14:00;;;;;;;4.27;1.93;;;15.20;99.90;;;;;;5031861;28;20991;-52
2021/08/26 22:16:27;;;;;;;2.90;1.57;;;15.20;99.90;;;;;;5031928;28;20443;-51
2021/08/26 22:18:54;;;;;;;2.30;1.73;;;15.20;99.90;;;;;;5031724;28;20850;-52
2021/08/26 22:21:20;;;;;;;4.00;2.20;;;15.20;99.90;;;;;;5031976;28;20434;-52
2021/08/26 22:23:50;;;;;;;2.40;1.47;;;15.20;99.90;;;;;;5031554;28;20500;-51
2021/08/26 22:26:16;;;;;;;3.27;1.60;;;15.20;99.90;;;;;;5031569;28;20870;-51
2021/08/26 22:28:44;;;;;;;3.70;2.10;;;15.20;99.90;;;;;;5031296;28;20434;-52
2021/08/26 22:31:11;;;;;;;2.77;1.40;;;15.10;99.90;;;;;;5031507;28;20435;-51
2021/08/26 22:33:38;;;;;;;4.50;2.27;;;15.20;99.90;;;;;;5031712;28;20455;-52
2021/08/26 22:36:06;;;;;;;2.23;1.80;;;15.20;99.90;;;;;;5031590;28;20936;-52
2021/08/26 22:38:35;;;;;;;3.13;1.97;;;15.20;99.90;;;;;;5031154;28;20443;-51
2021/08/26 22:41:02;;;;;;;3.80;2.23;;;15.20;99.90;;;;;;5031583;28;20533;-52
2021/08/26 22:43:29;;;;;;;2.83;2.10;;;15.20;99.90;;;;;;5031611;28;20493;-52
2021/08/26 22:45:57;;;;;;;3.70;1.93;;;15.20;99.90;;;;;;5031623;28;20434;-52
2021/08/26 22:48:23;;;;;;;2.00;1.67;;;15.20;99.90;;;;;;5031276;28;20904;-52
2021/08/26 22:50:50;;;;;;;2.67;1.83;;;15.50;99.90;;;;;;5031538;28;20432;-51
2021/08/26 22:53:16;;;;;;;4.70;1.90;;;15.00;99.90;;;;;;5031395;28;20451;-51
2021/08/26 22:55:44;;;;;;;2.67;2.03;;;15.20;99.90;;;;;;5031482;28;20438;-52
2021/08/26 22:58:10;;;;;;;3.87;2.70;;;15.20;99.90;;;;;;5030981;28;20439;-52
2021/08/26 23:00:38;;;;;;;2.60;1.80;;;15.10;99.90;;;;;;5035472;28;20431;-51
2021/08/26 23:03:06;;;;;;;2.87;1.93;;;15.10;99.90;;;;;;5035383;28;20566;-52
2021/08/26 23:05:32;;;;;;;2.27;2.03;;;15.00;99.90;;;;;;5035540;28;20444;-52
2021/08/26 23:07:59;;;;;;;4.13;2.30;;;15.10;99.90;;;;;;5035250;28;20938;-52
2021/08/26 23:10:26;;;;;;;7.90;2.30;;;15.20;99.90;;;;;;5035525;28;20943;-51
2021/08/26 23:12:52;;;;;;;3.23;1.97;;;15.10;99.90;;;;;;5035140;28;21006;-52
2021/08/26 23:15:19;;;;;;;5.40;3.00;;;15.30;99.90;;;;;;5035127;28;20839;-51
2021/08/26 23:17:46;;;;;;;2.77;1.63;;;15.40;99.90;;;;;;5035012;28;20955;-51
2021/08/26 23:20:14;;;;;;;1.83;1.53;;;15.20;99.90;;;;;;5035286;28;20796;-51
2021/08/26 23:22:41;;;;;;;2.93;1.90;;;15.20;99.90;;;;;;5034663;28;20544;-51
2021/08/26 23:25:08;;;;;;;3.73;1.87;;;15.20;99.90;;;;;;5035223;28;20938;-52
2021/08/26 23:27:35;;;;;;;3.00;2.10;;;15.20;99.90;;;;;;5035232;28;20463;-52
2021/08/26 23:30:02;;;;;;;4.47;2.20;;;14.90;99.90;;;;;;5035098;28;20777;-51
2021/08/26 23:32:28;;;;;;;2.80;1.90;;;15.00;99.90;;;;;;5035164;28;20451;-49
2021/08/26 23:34:55;;;;;;;4.33;2.30;;;15.20;99.90;;;;;;5035098;28;20628;-49
2021/08/26 23:37:23;;;;;;;9.73;2.53;;;15.20;99.90;;;;;;5033588;28;20566;-52
2021/08/26 23:39:49;;;;;;;3.97;2.23;;;15.20;99.90;;;;;;5034491;28;20431;-52
2021/08/26 23:42:16;;;;;;;4.77;2.40;;;15.20;99.90;;;;;;5034541;28;21020;-52
2021/08/26 23:44:43;;;;;;;2.87;2.23;;;15.20;99.90;;;;;;5034905;28;20450;-52
2021/08/26 23:47:09;;;;;;;2.23;1.90;;;15.20;99.90;;;;;;5034725;28;20442;-51
2021/08/26 23:49:36;;;;;;;3.30;1.70;;;15.20;99.90;;;;;;5034393;28;20492;-51
2021/08/26 23:52:03;;;;;;;2.23;2.03;;;15.20;99.90;;;;;;5034774;28;20442;-52
2021/08/26 23:54:31;;;;;;;6.00;3.13;;;15.20;99.90;;;;;;5034647;28;20443;-52
2021/08/26 23:56:58;;;;;;;2.80;2.13;;;15.20;99.90;;;;;;5034465;28;20777;-52
2021/08/26 23:59:24;;;;;;;4.03;2.53;;;15.20;99.90;;;;;;5034083;28;20470;-51
